createdAt,value
2018-05-15T00:01:05.387Z,101517.63
2018-05-15T00:03:36.711Z,101521.66
2018-05-15T00:06:08.073Z,101521.80
2018-05-15T00:08:37.880Z,101529.39
2018-05-15T00:11:07.846Z,101528.89
2018-05-15T00:13:39.806Z,101524.55
2018-05-15T00:16:11.363Z,101529.84
2018-05-15T00:18:42.757Z,101525.77
2018-05-15T00:21:12.848Z,101516.88
2018-05-15T00:23:42.558Z,101529.57
2018-05-15T00:26:12.240Z,101525.27
2018-05-15T00:28:45.254Z,101529.13
2018-05-15T00:31:16.307Z,101519.31
2018-05-15T00:33:46.301Z,101524.66
2018-05-15T00:36:16.315Z,101521.80
2018-05-15T00:38:46.329Z,101522.60
2018-05-15T00:41:17.853Z,101523.41
2018-05-15T00:43:49.432Z,101520.47
2018-05-15T00:46:20.897Z,101520.59
2018-05-15T00:48:50.819Z,101528.06
2018-05-15T00:51:22.233Z,101532.44
2018-05-15T00:53:53.668Z,101534.42
2018-05-15T00:56:23.628Z,101535.37
2018-05-15T00:58:55.368Z,101534.38
2018-05-15T01:01:26.737Z,101539.83
2018-05-15T01:03:57.792Z,101539.34
2018-05-15T01:06:28.586Z,101542.59
2018-05-15T01:08:59.574Z,101543.57
2018-05-15T01:11:30.674Z,101538.41
2018-05-15T01:14:02.773Z,101538.95
2018-05-15T01:16:32.691Z,101545.17
2018-05-15T01:19:04.174Z,101541.18
2018-05-15T01:21:35.773Z,101538.70
2018-05-15T01:24:07.222Z,101535.94
2018-05-15T01:26:37.138Z,101535.36
2018-05-15T01:29:08.575Z,101536.64
2018-05-15T01:31:40.063Z,101538.69
2018-05-15T01:34:11.692Z,101543.94
2018-05-15T01:36:43.347Z,101544.12
2018-05-15T01:39:13.288Z,101544.64
2018-05-15T01:41:44.730Z,101542.45
2018-05-15T01:44:16.293Z,101546.86
2018-05-15T01:46:48.394Z,101545.64
2018-05-15T01:49:18.668Z,101543.51
2018-05-15T01:51:50.133Z,101543.17
2018-05-15T01:54:21.050Z,101542.77
2018-05-15T01:56:52.692Z,101545.44
2018-05-15T01:59:24.143Z,101557.37
2018-05-15T02:01:54.567Z,101551.49
2018-05-15T02:04:26.643Z,101559.59
2018-05-15T02:06:58.283Z,101550.27
2018-05-15T02:09:28.259Z,101558.62
2018-05-15T02:11:59.656Z,101561.83
2018-05-15T02:14:31.192Z,101556.16
2018-05-15T02:17:02.771Z,101561.71
2018-05-15T02:19:34.112Z,101554.25
2018-05-15T02:22:04.548Z,101559.84
2018-05-15T02:24:35.313Z,101562.50
2018-05-15T02:27:06.240Z,101563.39
2018-05-15T02:29:36.868Z,101559.70
2018-05-15T02:32:07.019Z,101563.45
2018-05-15T02:34:37.355Z,101563.56
2018-05-15T02:37:09.046Z,101556.55
2018-05-15T02:39:40.417Z,101563.34
2018-05-15T02:42:11.975Z,101560.59
2018-05-15T02:44:42.391Z,101560.48
2018-05-15T02:47:14.560Z,101556.08
2018-05-15T02:49:46.019Z,101562.49
2018-05-15T02:52:17.562Z,101559.68
2018-05-15T02:54:49.015Z,101555.82
2018-05-15T02:57:19.749Z,101555.87
2018-05-15T02:59:51.859Z,101554.17
2018-05-15T03:02:23.207Z,101556.83
2018-05-15T03:04:53.839Z,101556.81
2018-05-15T03:07:23.832Z,101560.75
2018-05-15T03:09:55.207Z,101559.08
2018-05-15T03:12:25.156Z,101553.26
2018-05-15T03:14:55.507Z,101559.63
2018-05-15T03:17:27.062Z,101558.64
2018-05-15T03:19:56.457Z,101560.90
2018-05-15T03:22:26.803Z,101568.58
2018-05-15T03:24:58.763Z,101562.22
2018-05-15T03:27:30.313Z,101572.65
2018-05-15T03:30:01.864Z,101571.34
2018-05-15T03:32:31.860Z,101576.95
2018-05-15T03:35:01.980Z,101574.66
2018-05-15T03:37:32.853Z,101577.69
2018-05-15T03:40:04.407Z,101582.17
2018-05-15T03:42:35.837Z,101588.46
2018-05-15T03:45:07.487Z,101580.62
2018-05-15T03:47:39.012Z,101583.88
2018-05-15T03:50:10.418Z,101583.08
2018-05-15T03:52:41.835Z,101591.08
2018-05-15T03:55:12.486Z,101588.33
2018-05-15T03:57:42.693Z,101593.25
2018-05-15T04:00:52.620Z,101591.05
2018-05-15T04:04:16.010Z,101602.19
2018-05-15T04:07:23.374Z,101601.92
2018-05-15T04:09:54.939Z,101604.84
2018-05-15T04:12:24.952Z,101604.36
2018-05-15T04:14:56.623Z,101604.31
2018-05-15T04:17:28.504Z,101605.53
2018-05-15T04:20:00.320Z,101605.55
2018-05-15T04:22:30.349Z,101612.97
2018-05-15T04:25:01.873Z,101608.74
2018-05-15T04:27:33.840Z,101610.81
2018-05-15T04:30:03.481Z,101605.27
2018-05-15T04:32:33.391Z,101610.86
2018-05-15T04:35:03.457Z,101618.39
2018-05-15T04:37:34.546Z,101614.83
2018-05-15T04:40:06.019Z,101617.94
2018-05-15T04:42:37.320Z,101615.61
2018-05-15T04:45:09.223Z,101618.81
2018-05-15T04:47:39.149Z,101620.50
2018-05-15T04:50:10.673Z,101619.77
2018-05-15T04:52:42.146Z,101629.93
2018-05-15T04:55:13.279Z,101626.64
2018-05-15T04:57:44.331Z,101628.55
2018-05-15T05:00:15.876Z,101629.59
2018-05-15T05:02:45.214Z,101627.89
2018-05-15T05:05:16.686Z,101633.14
2018-05-15T05:07:46.682Z,101633.83
2018-05-15T05:10:17.304Z,101636.20
2018-05-15T05:12:48.822Z,101637.70
2018-05-15T05:15:20.353Z,101631.30
2018-05-15T05:17:50.264Z,101636.30
2018-05-15T05:20:20.208Z,101643.48
2018-05-15T05:22:51.739Z,101643.20
2018-05-15T05:25:21.646Z,101645.13
2018-05-15T05:27:53.180Z,101647.50
2018-05-15T05:30:24.520Z,101651.69
2018-05-15T05:32:56.000Z,101658.30
2018-05-15T05:35:26.037Z,101659.39
2018-05-15T05:37:56.056Z,101661.38
2018-05-15T05:40:27.199Z,101660.71
2018-05-15T05:42:58.201Z,101667.23
2018-05-15T05:45:29.536Z,101659.72
2018-05-15T05:48:00.876Z,101657.16
2018-05-15T05:50:32.104Z,101662.25
2018-05-15T05:53:03.696Z,101660.89
2018-05-15T05:55:35.064Z,101661.16
2018-05-15T05:58:04.608Z,101667.19
2018-05-15T06:00:35.511Z,101661.20
2018-05-15T06:03:06.819Z,101669.26
2018-05-15T06:05:37.957Z,101677.83
2018-05-15T06:08:09.031Z,101683.16
2018-05-15T06:10:40.389Z,101682.70
2018-05-15T06:13:11.855Z,101687.69
2018-05-15T06:15:43.337Z,101693.02
2018-05-15T06:18:15.075Z,101687.02
2018-05-15T06:20:46.837Z,101696.69
2018-05-15T06:23:18.266Z,101695.95
2018-05-15T06:25:48.171Z,101697.86
2018-05-15T06:28:18.009Z,101707.98
2018-05-15T06:30:49.701Z,101707.40
2018-05-15T06:33:20.542Z,101706.88
2018-05-15T06:35:50.504Z,101708.70
2018-05-15T06:38:20.505Z,101715.22
2018-05-15T06:40:51.472Z,101722.56
2018-05-15T06:43:22.361Z,101720.22
2018-05-15T06:45:53.847Z,101724.78
2018-05-15T06:48:25.257Z,101722.38
2018-05-15T06:50:55.787Z,101722.73
2018-05-15T06:53:26.362Z,101720.85
2018-05-15T06:55:57.511Z,101718.23
2018-05-15T06:58:26.974Z,101719.77
2018-05-15T07:00:58.303Z,101729.09
2018-05-15T07:03:29.667Z,101722.48
2018-05-15T07:05:58.720Z,101728.27
2018-05-15T07:08:27.816Z,101728.27
2018-05-15T07:10:57.701Z,101729.50
2018-05-15T07:13:29.256Z,101729.19
2018-05-15T07:16:01.016Z,101725.78
2018-05-15T07:18:30.842Z,101728.84
2018-05-15T07:21:00.744Z,101736.25
2018-05-15T07:23:30.149Z,101739.49
2018-05-15T07:26:01.494Z,101739.66
2018-05-15T07:28:32.902Z,101738.74
2018-05-15T07:31:04.503Z,101732.58
2018-05-15T07:33:35.799Z,101735.47
2018-05-15T07:36:07.165Z,101737.59
2018-05-15T07:38:38.885Z,101743.45
2018-05-15T07:41:10.439Z,101748.52
2018-05-15T07:43:41.829Z,101745.66
2018-05-15T07:46:13.172Z,101747.99
2018-05-15T07:48:44.493Z,101753.70
2018-05-15T07:51:15.785Z,101747.50
2018-05-15T07:53:45.949Z,101749.59
2018-05-15T07:56:17.153Z,101747.06
2018-05-15T07:58:47.060Z,101751.98
2018-05-15T08:01:16.667Z,101759.73
2018-05-15T08:03:46.696Z,101759.63
2018-05-15T08:06:17.337Z,101758.81
2018-05-15T08:08:47.281Z,101768.60
2018-05-15T08:11:18.888Z,101766.95
2018-05-15T08:13:50.197Z,101768.95
2018-05-15T08:16:20.049Z,101774.39
2018-05-15T08:18:50.674Z,101786.62
2018-05-15T08:21:21.998Z,101784.77
2018-05-15T08:23:53.091Z,101776.91
2018-05-15T08:26:23.595Z,101779.91
2018-05-15T08:28:55.053Z,101779.56
2018-05-15T08:31:25.384Z,101784.98
2018-05-15T08:33:56.754Z,101778.45
2018-05-15T08:36:27.163Z,101785.83
2018-05-15T08:38:59.747Z,101781.50
2018-05-15T08:41:31.730Z,101780.76
2018-05-15T08:44:02.900Z,101788.81
2018-05-15T08:46:33.790Z,101791.26
2018-05-15T08:49:05.222Z,101784.79
2018-05-15T08:51:35.855Z,101779.48
2018-05-15T08:54:05.584Z,101785.63
2018-05-15T08:56:35.925Z,101779.45
2018-05-15T08:59:07.155Z,101774.06
2018-05-15T09:01:38.356Z,101774.28
2018-05-15T09:04:08.731Z,101773.20
2018-05-15T09:06:38.533Z,101768.94
2018-05-15T09:09:10.065Z,101767.06
2018-05-15T09:11:41.618Z,101772.81
2018-05-15T09:14:13.879Z,101772.77
2018-05-15T09:16:45.720Z,101767.02
2018-05-15T09:19:16.902Z,101765.37
2018-05-15T09:21:48.299Z,101758.09
2018-05-15T09:24:18.176Z,101768.66
2018-05-15T09:26:50.140Z,101776.20
2018-05-15T09:29:20.069Z,101771.50
2018-05-15T09:31:50.490Z,101768.66
2018-05-15T09:34:21.887Z,101762.69
2018-05-15T09:36:53.169Z,101771.12
2018-05-15T09:39:24.605Z,101761.77
2018-05-15T09:41:56.188Z,101758.72
2018-05-15T09:44:27.630Z,101772.17
2018-05-15T09:46:58.999Z,101763.97
2018-05-15T09:49:30.259Z,101765.41
2018-05-15T09:52:01.917Z,101765.93
2018-05-15T09:54:32.935Z,101763.89
2018-05-15T09:57:05.384Z,101771.14
2018-05-15T09:59:36.280Z,101760.74
2018-05-15T10:02:07.158Z,101770.66
2018-05-15T10:04:37.571Z,101767.36
2018-05-15T10:07:07.401Z,101776.98
2018-05-15T10:09:39.250Z,101777.83
2018-05-15T10:12:09.172Z,101773.23
2018-05-15T10:14:40.491Z,101771.50
2018-05-15T10:17:11.659Z,101766.14
2018-05-15T10:19:41.492Z,101764.55
2018-05-15T10:22:12.888Z,101766.09
2018-05-15T10:24:45.302Z,101765.09
2018-05-15T10:27:16.698Z,101757.85
2018-05-15T10:29:47.807Z,101767.41
2018-05-15T10:32:17.686Z,101756.55
2018-05-15T10:34:49.024Z,101757.52
2018-05-15T10:37:20.114Z,101753.20
2018-05-15T10:39:50.575Z,101748.95
2018-05-15T10:42:20.157Z,101755.16
2018-05-15T10:44:51.586Z,101750.29
2018-05-15T10:47:22.630Z,101749.44
2018-05-15T10:49:53.477Z,101753.23
2018-05-15T10:52:23.667Z,101738.59
2018-05-15T10:54:54.198Z,101741.02
2018-05-15T10:57:25.563Z,101745.72
2018-05-15T10:59:56.614Z,101737.70
2018-05-15T11:02:28.173Z,101746.18
2018-05-15T11:04:59.557Z,101733.94
2018-05-15T11:07:29.854Z,101731.16
2018-05-15T11:09:59.861Z,101743.03
2018-05-15T11:12:29.754Z,101741.59
2018-05-15T11:15:01.175Z,101744.57
2018-05-15T11:17:32.573Z,101747.22
2018-05-15T11:20:40.260Z,101729.88
2018-05-15T11:23:48.857Z,101743.64
2018-05-15T11:26:18.744Z,101738.02
2018-05-15T11:28:48.633Z,101722.52
2018-05-15T11:31:20.157Z,101726.05
2018-05-15T11:33:52.040Z,101723.50
2018-05-15T11:36:21.946Z,101734.31
2018-05-15T11:38:53.183Z,101725.84
2018-05-15T11:41:23.138Z,101721.64
2018-05-15T11:43:54.732Z,101715.83
2018-05-15T11:46:25.204Z,101716.72
2018-05-15T11:48:55.609Z,101712.63
2018-05-15T11:51:26.062Z,101713.06
2018-05-15T11:53:54.803Z,101713.12
2018-05-15T11:56:26.196Z,101712.72
2018-05-15T11:58:56.033Z,101701.00
2018-05-15T12:01:27.414Z,101713.23
2018-05-15T12:03:58.559Z,101705.27
2018-05-15T12:06:28.363Z,101704.87
2018-05-15T12:09:00.016Z,101703.75
2018-05-15T12:11:31.260Z,101705.77
2018-05-15T12:14:01.666Z,101694.24
2018-05-15T12:16:33.089Z,101700.23
2018-05-15T12:19:03.535Z,101704.47
2018-05-15T12:21:32.654Z,101696.47
2018-05-15T12:24:02.529Z,101683.48
2018-05-15T12:26:33.834Z,101702.92
2018-05-15T12:29:03.681Z,101698.29
2018-05-15T12:31:33.553Z,101695.14
2018-05-15T12:34:05.312Z,101695.64
2018-05-15T12:36:35.210Z,101691.13
2018-05-15T12:39:05.633Z,101682.80
2018-05-15T12:41:36.611Z,101704.57
2018-05-15T12:44:08.030Z,101686.42
2018-05-15T12:46:38.880Z,101683.72
2018-05-15T12:49:09.230Z,101696.06
2018-05-15T12:51:39.802Z,101691.68
2018-05-15T12:54:09.882Z,101689.09
2018-05-15T12:56:39.375Z,101684.65
2018-05-15T12:59:08.477Z,101683.30
2018-05-15T13:01:39.846Z,101683.45
2018-05-15T13:04:09.819Z,101687.20
2018-05-15T13:06:39.634Z,101679.39
2018-05-15T13:09:11.013Z,101680.40
2018-05-15T13:11:42.454Z,101676.25
2018-05-15T13:14:13.289Z,101669.45
2018-05-15T13:16:43.146Z,101676.62
2018-05-15T13:19:14.658Z,101681.33
2018-05-15T13:21:45.178Z,101676.88
2018-05-15T13:24:16.726Z,101676.04
2018-05-15T13:26:47.764Z,101670.31
2018-05-15T13:29:18.093Z,101676.89
2018-05-15T13:31:47.916Z,101671.19
2018-05-15T13:34:19.673Z,101670.80
2018-05-15T13:36:50.189Z,101666.17
2018-05-15T13:39:21.457Z,101665.38
2018-05-15T13:41:51.029Z,101666.23
2018-05-15T13:44:20.071Z,101656.25
2018-05-15T13:46:49.442Z,101666.75
2018-05-15T13:49:20.760Z,101661.22
2018-05-15T13:51:50.601Z,101650.82
2018-05-15T13:54:21.365Z,101658.00
2018-05-15T13:56:53.288Z,101658.00
2018-05-15T13:59:24.669Z,101651.63
2018-05-15T14:01:56.005Z,101648.68
2018-05-15T14:04:26.800Z,101642.00
2018-05-15T14:06:57.991Z,101644.34
2018-05-15T14:09:27.817Z,101648.92
2018-05-15T14:12:00.234Z,101642.98
2018-05-15T14:14:31.397Z,101640.52
2018-05-15T14:17:01.204Z,101638.66
2018-05-15T14:19:32.688Z,101646.86
2018-05-15T14:22:02.361Z,101637.64
2018-05-15T14:24:32.227Z,101633.11
2018-05-15T14:27:03.122Z,101636.18
2018-05-15T14:29:33.168Z,101633.66
2018-05-15T14:32:02.360Z,101633.91
2018-05-15T14:34:34.132Z,101628.16
2018-05-15T14:37:05.513Z,101628.76
2018-05-15T14:39:36.349Z,101629.45
2018-05-15T14:42:42.252Z,101620.03
2018-05-15T14:45:16.573Z,101616.95
2018-05-15T14:47:45.629Z,101618.61
2018-05-15T14:50:14.895Z,101622.29
2018-05-15T14:52:45.206Z,101620.20
2018-05-15T14:55:16.584Z,101612.42
2018-05-15T14:57:47.176Z,101614.52
2018-05-15T15:00:17.033Z,101612.80
2018-05-15T15:02:46.931Z,101606.92
2018-05-15T15:05:17.110Z,101608.44
2018-05-15T15:07:47.264Z,101605.88
2018-05-15T15:10:17.300Z,101606.51
2018-05-15T15:12:48.710Z,101608.20
2018-05-15T15:15:20.131Z,101592.74
2018-05-15T15:17:51.555Z,101598.70
2018-05-15T15:20:22.113Z,101594.45
2018-05-15T15:22:52.116Z,101596.36
2018-05-15T15:25:22.263Z,101586.33
2018-05-15T15:27:52.831Z,101588.52
2018-05-15T15:30:24.180Z,101577.68
2018-05-15T15:32:55.639Z,101577.73
2018-05-15T15:35:26.562Z,101583.11
2018-05-15T15:37:56.246Z,101585.00
2018-05-15T15:40:25.408Z,101580.55
2018-05-15T15:42:55.329Z,101574.45
2018-05-15T15:45:25.171Z,101569.16
2018-05-15T15:47:56.451Z,101570.75
2018-05-15T15:50:27.380Z,101565.24
2018-05-15T15:52:58.666Z,101555.10
2018-05-15T15:55:29.182Z,101562.77
2018-05-15T15:58:00.676Z,101557.48
2018-05-15T16:00:29.476Z,101554.61
2018-05-15T16:03:00.949Z,101560.70
2018-05-15T16:05:31.715Z,101552.27
2018-05-15T16:08:03.188Z,101547.23
2018-05-15T16:10:32.578Z,101544.17
2018-05-15T16:13:03.877Z,101546.98
2018-05-15T16:15:33.677Z,101542.73
2018-05-15T16:18:04.945Z,101546.34
2018-05-15T16:20:34.898Z,101539.69
2018-05-15T16:23:05.492Z,101544.36
2018-05-15T16:25:36.387Z,101548.09
2018-05-15T16:28:06.277Z,101548.27
2018-05-15T16:30:35.565Z,101543.94
2018-05-15T16:33:05.402Z,101539.84
2018-05-15T16:35:35.368Z,101537.05
2018-05-15T16:38:05.406Z,101546.94
2018-05-15T16:40:34.481Z,101543.43
2018-05-15T16:43:04.906Z,101541.82
2018-05-15T16:45:35.220Z,101544.00
2018-05-15T16:48:05.872Z,101545.43
2018-05-15T16:50:35.727Z,101554.16
2018-05-15T16:53:05.663Z,101551.03
2018-05-15T16:55:35.701Z,101542.86
2018-05-15T16:58:05.574Z,101547.00
2018-05-15T17:00:37.005Z,101546.08
2018-05-15T17:03:06.958Z,101556.03
2018-05-15T17:05:36.882Z,101547.80
2018-05-15T17:08:06.985Z,101551.09
2018-05-15T17:10:38.575Z,101552.59
2018-05-15T17:13:08.719Z,101549.92
2018-05-15T17:15:39.934Z,101549.86
2018-05-15T17:18:14.423Z,101554.48
2018-05-15T17:20:47.623Z,101553.05
2018-05-15T17:23:19.393Z,101547.36
2018-05-15T17:25:48.601Z,101551.16
2018-05-15T17:28:18.678Z,101555.52
2018-05-15T17:30:48.541Z,101549.77
2018-05-15T17:33:20.081Z,101551.78
2018-05-15T17:35:50.633Z,101548.37
2018-05-15T17:38:20.586Z,101548.84
2018-05-15T17:40:52.964Z,101547.92
2018-05-15T17:43:22.797Z,101540.34
2018-05-15T17:45:52.652Z,101545.86
2018-05-15T17:48:23.994Z,101542.77
2018-05-15T17:50:54.468Z,101550.62
2018-05-15T17:53:24.878Z,101549.02
2018-05-15T17:55:54.946Z,101551.98
2018-05-15T17:58:24.116Z,101547.31
2018-05-15T18:00:54.054Z,101549.89
2018-05-15T18:03:24.537Z,101554.69
2018-05-15T18:05:53.530Z,101556.29
2018-05-15T18:08:26.637Z,101552.92
2018-05-15T18:10:56.444Z,101548.49
2018-05-15T18:13:27.851Z,101558.56
2018-05-15T18:15:59.405Z,101548.66
2018-05-15T18:18:30.270Z,101552.92
2018-05-15T18:21:00.292Z,101551.73
2018-05-15T18:23:30.570Z,101556.11
2018-05-15T18:26:00.382Z,101550.64
2018-05-15T18:28:30.831Z,101554.45
2018-05-15T18:31:02.262Z,101548.06
2018-05-15T18:33:32.195Z,101549.27
2018-05-15T18:36:03.672Z,101552.25
2018-05-15T18:38:35.227Z,101549.58
2018-05-15T18:41:05.689Z,101556.52
2018-05-15T18:43:35.502Z,101550.19
2018-05-15T18:46:05.836Z,101560.51
2018-05-15T18:48:35.896Z,101558.86
2018-05-15T18:51:05.622Z,101555.19
2018-05-15T18:53:36.379Z,101562.19
2018-05-15T18:56:07.270Z,101565.59
2018-05-15T18:58:36.504Z,101568.12
2018-05-15T19:01:05.974Z,101569.81
2018-05-15T19:03:37.307Z,101566.59
2018-05-15T19:06:07.277Z,101577.88
2018-05-15T19:08:39.047Z,101583.55
2018-05-15T19:11:10.311Z,101582.83
2018-05-15T19:13:41.758Z,101592.06
2018-05-15T19:16:12.241Z,101596.30
2018-05-15T19:18:42.139Z,101599.83
2018-05-15T19:21:12.175Z,101604.73
2018-05-15T19:23:42.220Z,101603.84
2018-05-15T19:26:13.568Z,101611.27
2018-05-15T19:28:44.876Z,101606.03
2018-05-15T19:31:18.101Z,101618.36
2018-05-15T19:33:54.773Z,101612.78
2018-05-15T19:36:33.728Z,101619.91
2018-05-15T19:39:08.705Z,101618.30
2018-05-15T19:41:40.247Z,101619.05
2018-05-15T19:44:10.207Z,101615.59
2018-05-15T19:46:40.198Z,101616.55
2018-05-15T19:49:10.450Z,101625.06
2018-05-15T19:51:39.839Z,101621.42
2018-05-15T19:54:09.827Z,101621.77
2018-05-15T19:56:39.461Z,101625.97
2018-05-15T19:59:10.901Z,101627.81
2018-05-15T20:01:40.212Z,101633.95
2018-05-15T20:04:11.930Z,101638.31
2018-05-15T20:06:43.404Z,101632.03
2018-05-15T20:09:13.334Z,101636.25
2018-05-15T20:11:43.979Z,101632.59
2018-05-15T20:14:15.388Z,101636.14
2018-05-15T20:16:46.997Z,101639.20
2018-05-15T20:19:18.219Z,101640.69
2018-05-15T20:21:48.024Z,101637.98
2018-05-15T20:24:17.943Z,101644.55
2018-05-15T20:26:49.312Z,101642.42
2018-05-15T20:29:19.450Z,101645.30
2018-05-15T20:31:48.782Z,101653.64
2018-05-15T20:34:18.626Z,101650.22
2018-05-15T20:36:50.025Z,101648.14
2018-05-15T20:39:22.443Z,101648.20
2018-05-15T20:41:53.881Z,101656.54
2018-05-15T20:44:23.902Z,101657.06
2018-05-15T20:46:55.306Z,101656.23
2018-05-15T20:49:26.724Z,101657.25
2018-05-15T20:51:56.741Z,101656.02
2018-05-15T20:54:26.645Z,101656.49
2018-05-15T20:56:57.889Z,101657.68
2018-05-15T20:59:27.905Z,101664.13
2018-05-15T21:01:58.452Z,101665.04
2018-05-15T21:04:29.845Z,101660.06
2018-05-15T21:07:01.258Z,101661.20
2018-05-15T21:09:32.652Z,101666.42
2018-05-15T21:12:03.387Z,101662.36
2018-05-15T21:14:33.325Z,101658.34
2018-05-15T21:17:04.677Z,101657.14
2018-05-15T21:19:34.602Z,101657.14
2018-05-15T21:22:06.161Z,101661.09
2018-05-15T21:24:37.078Z,101653.41
2018-05-15T21:27:08.558Z,101652.12
2018-05-15T21:29:39.944Z,101657.89
2018-05-15T21:32:11.734Z,101655.08
2018-05-15T21:34:43.198Z,101659.84
2018-05-15T21:37:15.379Z,101659.75
2018-05-15T21:39:46.836Z,101658.43
2018-05-15T21:42:16.839Z,101659.95
2018-05-15T21:44:46.767Z,101653.20
2018-05-15T21:47:18.185Z,101659.50
2018-05-15T21:49:48.025Z,101650.19
2018-05-15T21:52:18.025Z,101654.19
2018-05-15T21:54:48.030Z,101651.14
2018-05-15T21:57:18.776Z,101655.03
2018-05-15T21:59:49.164Z,101649.98
2018-05-15T22:02:19.077Z,101654.22
2018-05-15T22:04:50.578Z,101653.98
2018-05-15T22:07:20.445Z,101652.45
2018-05-15T22:09:52.130Z,101647.61
2018-05-15T22:13:00.047Z,101652.53
2018-05-15T22:16:06.748Z,101658.44
2018-05-15T22:19:14.422Z,101664.66
2018-05-15T22:22:18.145Z,101660.91
2018-05-15T22:24:48.062Z,101663.15
2018-05-15T22:27:18.036Z,101657.75
2018-05-15T22:29:49.925Z,101661.52
2018-05-15T22:32:21.617Z,101659.39
2018-05-15T22:34:53.014Z,101662.95
2018-05-15T22:37:22.916Z,101665.97
2018-05-15T22:39:55.315Z,101661.22
2018-05-15T22:42:25.246Z,101662.77
2018-05-15T22:44:57.665Z,101658.92
2018-05-15T22:47:31.102Z,101655.06
2018-05-15T22:50:02.662Z,101654.70
2018-05-15T22:52:35.032Z,101652.83
2018-05-15T22:55:05.144Z,101655.92
2018-05-15T22:57:35.203Z,101651.63
2018-05-15T23:00:05.163Z,101646.32
2018-05-15T23:02:36.924Z,101644.91
2018-05-15T23:05:06.943Z,101637.77
2018-05-15T23:07:38.811Z,101643.20
2018-05-15T23:10:09.203Z,101642.86
2018-05-15T23:12:41.157Z,101643.94
2018-05-15T23:15:12.601Z,101646.95
2018-05-15T23:17:41.997Z,101641.91
2018-05-15T23:20:13.505Z,101645.93
2018-05-15T23:22:46.288Z,101647.53
2018-05-15T23:25:16.228Z,101645.80
2018-05-15T23:27:46.231Z,101640.48
2018-05-15T23:30:17.833Z,101640.89
2018-05-15T23:32:49.850Z,101640.06
2018-05-15T23:35:19.103Z,101639.92
2018-05-15T23:37:50.539Z,101649.44
2018-05-15T23:40:22.525Z,101643.78
2018-05-15T23:42:54.417Z,101643.17
2018-05-15T23:45:25.951Z,101642.33
2018-05-15T23:47:57.732Z,101642.27
2018-05-15T23:50:29.134Z,101641.54
2018-05-15T23:52:58.634Z,101631.86
2018-05-15T23:55:30.554Z,101641.70
2018-05-15T23:58:00.860Z,101637.52
